sensor_id;sensor_type;location;lat;lon;timestamp;pressure;altitude;pressure_sealevel;temperature
13410;BMP180;6775;49.574;11.170;2024-03-02T00:01:52;96493.91;;;6.39
13410;BMP180;6775;49.574;11.170;2024-03-02T00:04:21;96488.00;;;6.39
13410;BMP180;6775;49.574;11.170;2024-03-02T00:06:51;96481.28;;;6.38
13410;BMP180;6775;49.574;11.170;2024-03-02T00:09:21;96486.38;;;6.38
13410;BMP180;6775;49.574;11.170;2024-03-02T00:11:50;96485.47;;;6.39
13410;BMP180;6775;49.574;11.170;2024-03-02T00:14:19;96484.50;;;6.40
13410;BMP180;6775;49.574;11.170;2024-03-02T00:16:47;96484.50;;;6.40
13410;BMP180;6775;49.574;11.170;2024-03-02T00:19:16;96477.69;;;6.40
13410;BMP180;6775;49.574;11.170;2024-03-02T00:21:45;96482.09;;;6.38
13410;BMP180;6775;49.574;11.170;2024-03-02T00:24:21;96481.97;;;6.40
13410;BMP180;6775;49.574;11.170;2024-03-02T00:26:50;96482.91;;;6.39
13410;BMP180;6775;49.574;11.170;2024-03-02T00:29:18;96484.50;;;6.40
13410;BMP180;6775;49.574;11.170;2024-03-02T00:31:48;96482.91;;;6.39
13410;BMP180;6775;49.574;11.170;2024-03-02T00:34:17;96481.03;;;6.41
13410;BMP180;6775;49.574;11.170;2024-03-02T00:36:47;96478.94;;;6.46
13410;BMP180;6775;49.574;11.170;2024-03-02T00:39:16;96479.38;;;6.51
13410;BMP180;6775;49.574;11.170;2024-03-02T00:41:45;96479.84;;;6.55
13410;BMP180;6775;49.574;11.170;2024-03-02T00:44:16;96484.69;;;6.58
13410;BMP180;6775;49.574;11.170;2024-03-02T00:46:47;96484.81;;;6.57
13410;BMP180;6775;49.574;11.170;2024-03-02T00:49:21;96486.53;;;6.56
13410;BMP180;6775;49.574;11.170;2024-03-02T00:51:52;96485.88;;;6.54
13410;BMP180;6775;49.574;11.170;2024-03-02T00:54:23;96484.13;;;6.55
13410;BMP180;6775;49.574;11.170;2024-03-02T00:56:54;96486.78;;;6.53
13410;BMP180;6775;49.574;11.170;2024-03-02T00:59:24;96491.66;;;6.56
13410;BMP180;6775;49.574;11.170;2024-03-02T01:01:52;96489.09;;;6.56
13410;BMP180;6775;49.574;11.170;2024-03-02T01:04:21;96493.84;;;6.61
13410;BMP180;6775;49.574;11.170;2024-03-02T01:06:50;96492.78;;;6.63
13410;BMP180;6775;49.574;11.170;2024-03-02T01:09:19;96495.22;;;6.65
13410;BMP180;6775;49.574;11.170;2024-03-02T01:11:47;96490.69;;;6.68
13410;BMP180;6775;49.574;11.170;2024-03-02T01:14:16;96496.84;;;6.66
13410;BMP180;6775;49.574;11.170;2024-03-02T01:16:44;96498.44;;;6.67
13410;BMP180;6775;49.574;11.170;2024-03-02T01:19:12;96502.75;;;6.66
13410;BMP180;6775;49.574;11.170;2024-03-02T01:21:42;96503.22;;;6.71
13410;BMP180;6775;49.574;11.170;2024-03-02T01:24:11;96494.22;;;6.77
13410;BMP180;6775;49.574;11.170;2024-03-02T01:26:40;96493.78;;;6.83
13410;BMP180;6775;49.574;11.170;2024-03-02T01:29:08;96495.31;;;6.95
13410;BMP180;6775;49.574;11.170;2024-03-02T01:31:36;96497.72;;;7.07
13410;BMP180;6775;49.574;11.170;2024-03-02T01:34:06;96492.81;;;7.04
13410;BMP180;6775;49.574;11.170;2024-03-02T01:36:35;96496.84;;;6.97
13410;BMP180;6775;49.574;11.170;2024-03-02T01:39:03;96504.97;;;6.91
13410;BMP180;6775;49.574;11.170;2024-03-02T01:41:37;96496.19;;;6.84
13410;BMP180;6775;49.574;11.170;2024-03-02T01:44:05;96494.94;;;6.79
13410;BMP180;6775;49.574;11.170;2024-03-02T01:46:33;96487.91;;;6.71
13410;BMP180;6775;49.574;11.170;2024-03-02T01:49:02;96482.34;;;6.66
13410;BMP180;6775;49.574;11.170;2024-03-02T01:51:31;96488.72;;;6.61
13410;BMP180;6775;49.574;11.170;2024-03-02T01:53:59;96491.66;;;6.56
13410;BMP180;6775;49.574;11.170;2024-03-02T01:56:28;96496.75;;;6.56
13410;BMP180;6775;49.574;11.170;2024-03-02T01:58:57;96485.63;;;6.57
13410;BMP180;6775;49.574;11.170;2024-03-02T02:01:26;96486.53;;;6.56
13410;BMP180;6775;49.574;11.170;2024-03-02T02:03:54;96491.66;;;6.56
13410;BMP180;6775;49.574;11.170;2024-03-02T02:06:23;96490.06;;;6.55
13410;BMP180;6775;49.574;11.170;2024-03-02T02:08:51;96488.53;;;6.53
13410;BMP180;6775;49.574;11.170;2024-03-02T02:11:20;96489.34;;;6.53
13410;BMP180;6775;49.574;11.170;2024-03-02T02:13:48;96492.81;;;6.52
13410;BMP180;6775;49.574;11.170;2024-03-02T02:16:18;96491.91;;;6.53
13410;BMP180;6775;49.574;11.170;2024-03-02T02:18:46;96483.81;;;6.49
13410;BMP180;6775;49.574;11.170;2024-03-02T02:21:14;96492.63;;;6.45
13410;BMP180;6775;49.574;11.170;2024-03-02T02:23:44;96490.19;;;6.43
13410;BMP180;6775;49.574;11.170;2024-03-02T02:26:15;96492.88;;;6.42
13410;BMP180;6775;49.574;11.170;2024-03-02T02:28:43;96492.88;;;6.42
13410;BMP180;6775;49.574;11.170;2024-03-02T02:31:14;96487.91;;;6.40
13410;BMP180;6775;49.574;11.170;2024-03-02T02:33:42;96493.13;;;6.39
13410;BMP180;6775;49.574;11.170;2024-03-02T02:36:11;96494.84;;;6.38
13410;BMP180;6775;49.574;11.170;2024-03-02T02:38:45;96498.22;;;6.39
13410;BMP180;6775;49.574;11.170;2024-03-02T02:41:15;96497.28;;;6.40
13410;BMP180;6775;49.574;11.170;2024-03-02T02:43:43;96497.16;;;6.41
13410;BMP180;6775;49.574;11.170;2024-03-02T02:46:11;96496.34;;;6.41
13410;BMP180;6775;49.574;11.170;2024-03-02T02:48:39;96497.03;;;6.43
13410;BMP180;6775;49.574;11.170;2024-03-02T02:51:08;96500.97;;;6.47
13410;BMP180;6775;49.574;11.170;2024-03-02T02:53:36;96498.28;;;6.48
13410;BMP180;6775;49.574;11.170;2024-03-02T02:56:09;96496.44;;;6.50
13410;BMP180;6775;49.574;11.170;2024-03-02T02:58:37;96491.34;;;6.50
13410;BMP180;6775;49.574;11.170;2024-03-02T03:01:05;96493.78;;;6.52
13410;BMP180;6775;49.574;11.170;2024-03-02T03:03:34;96497.00;;;6.53
13410;BMP180;6775;49.574;11.170;2024-03-02T03:06:03;96501.63;;;6.59
13410;BMP180;6775;49.574;11.170;2024-03-02T03:08:31;96502.31;;;6.61
13410;BMP180;6775;49.574;11.170;2024-03-02T03:11:00;96498.94;;;6.61
13410;BMP180;6775;49.574;11.170;2024-03-02T03:13:29;96494.66;;;6.61
13410;BMP180;6775;49.574;11.170;2024-03-02T03:15:58;96498.16;;;6.60
13410;BMP180;6775;49.574;11.170;2024-03-02T03:18:26;96497.59;;;6.57
13410;BMP180;6775;49.574;11.170;2024-03-02T03:20:54;96497.72;;;6.55
13410;BMP180;6775;49.574;11.170;2024-03-02T03:23:23;96491.66;;;6.56
13410;BMP180;6775;49.574;11.170;2024-03-02T03:25:52;96488.38;;;6.65
13410;BMP180;6775;49.574;11.170;2024-03-02T03:28:21;96495.19;;;6.76
13410;BMP180;6775;49.574;11.170;2024-03-02T03:30:50;96500.59;;;6.82
13410;BMP180;6775;49.574;11.170;2024-03-02T03:33:18;96493.28;;;6.89
13410;BMP180;6775;49.574;11.170;2024-03-02T03:35:47;96497.09;;;6.94
13410;BMP180;6775;49.574;11.170;2024-03-02T03:38:15;96497.50;;;6.99
13410;BMP180;6775;49.574;11.170;2024-03-02T03:40:43;96505.84;;;7.01
13410;BMP180;6775;49.574;11.170;2024-03-02T03:43:12;96498.88;;;7.03
13410;BMP180;6775;49.574;11.170;2024-03-02T03:45:40;96499.56;;;7.05
13410;BMP180;6775;49.574;11.170;2024-03-02T03:48:10;96498.50;;;7.07
13410;BMP180;6775;49.574;11.170;2024-03-02T03:50:38;96502.31;;;7.13
13410;BMP180;6775;49.574;11.170;2024-03-02T03:53:06;96503.66;;;7.17
13410;BMP180;6775;49.574;11.170;2024-03-02T03:55:35;96505.28;;;7.18
13410;BMP180;6775;49.574;11.170;2024-03-02T03:58:03;96503.44;;;7.20
13410;BMP180;6775;49.574;11.170;2024-03-02T04:00:32;96497.63;;;7.18
13410;BMP180;6775;49.574;11.170;2024-03-02T04:03:00;96492.66;;;7.16
13410;BMP180;6775;49.574;11.170;2024-03-02T04:05:30;96491.38;;;7.11
13410;BMP180;6775;49.574;11.170;2024-03-02T04:07:58;96492.59;;;7.07
13410;BMP180;6775;49.574;11.170;2024-03-02T04:10:27;96502.44;;;7.11
13410;BMP180;6775;49.574;11.170;2024-03-02T04:12:55;96493.09;;;7.21
13410;BMP180;6775;49.574;11.170;2024-03-02T04:15:23;96499.69;;;7.24
13410;BMP180;6775;49.574;11.170;2024-03-02T04:17:52;96499.00;;;7.22
13410;BMP180;6775;49.574;11.170;2024-03-02T04:20:20;96499.25;;;7.19
13410;BMP180;6775;49.574;11.170;2024-03-02T04:22:49;96492.97;;;7.23
13410;BMP180;6775;49.574;11.170;2024-03-02T04:25:18;96496.44;;;7.22
13410;BMP180;6775;49.574;11.170;2024-03-02T04:27:46;96499.38;;;7.17
13410;BMP180;6775;49.574;11.170;2024-03-02T04:30:15;96508.34;;;7.12
13410;BMP180;6775;49.574;11.170;2024-03-02T04:32:43;96500.94;;;7.09
13410;BMP180;6775;49.574;11.170;2024-03-02T04:35:14;96515.34;;;7.10
13410;BMP180;6775;49.574;11.170;2024-03-02T04:37:42;96505.25;;;7.08
13410;BMP180;6775;49.574;11.170;2024-03-02T04:40:12;96512.06;;;7.08
13410;BMP180;6775;49.574;11.170;2024-03-02T04:42:41;96513.03;;;7.07
13410;BMP180;6775;49.574;11.170;2024-03-02T04:45:10;96508.28;;;7.02
13410;BMP180;6775;49.574;11.170;2024-03-02T04:47:38;96518.63;;;7.01
13410;BMP180;6775;49.574;11.170;2024-03-02T04:50:07;96508.66;;;6.98
13410;BMP180;6775;49.574;11.170;2024-03-02T04:52:36;96523.28;;;6.96
13410;BMP180;6775;49.574;11.170;2024-03-02T04:55:05;96515.63;;;6.96
13410;BMP180;6775;49.574;11.170;2024-03-02T04:57:57;96516.69;;;6.94
13410;BMP180;6775;49.574;11.170;2024-03-02T05:00:26;96513.13;;;6.85
13410;BMP180;6775;49.574;11.170;2024-03-02T05:02:54;96514.19;;;6.83
13410;BMP180;6775;49.574;11.170;2024-03-02T05:05:22;96513.63;;;6.79
13410;BMP180;6775;49.574;11.170;2024-03-02T05:07:51;96531.06;;;6.74
13410;BMP180;6775;49.574;11.170;2024-03-02T05:10:19;96522.94;;;6.69
13410;BMP180;6775;49.574;11.170;2024-03-02T05:12:47;96525.31;;;6.61
13410;BMP180;6775;49.574;11.170;2024-03-02T05:15:28;96523.91;;;6.57
13410;BMP180;6775;49.574;11.170;2024-03-02T05:17:56;96521.59;;;6.54
13410;BMP180;6775;49.574;11.170;2024-03-02T05:20:26;96522.78;;;6.51
13410;BMP180;6775;49.574;11.170;2024-03-02T05:22:54;96524.63;;;6.49
13410;BMP180;6775;49.574;11.170;2024-03-02T05:25:23;96532.53;;;6.46
13410;BMP180;6775;49.574;11.170;2024-03-02T05:27:51;96528.47;;;6.43
13410;BMP180;6775;49.574;11.170;2024-03-02T05:30:19;96537.19;;;6.41
13410;BMP180;6775;49.574;11.170;2024-03-02T05:32:49;96533.00;;;6.40
13410;BMP180;6775;49.574;11.170;2024-03-02T05:35:17;96533.69;;;6.42
13410;BMP180;6775;49.574;11.170;2024-03-02T05:37:45;96533.69;;;6.42
13410;BMP180;6775;49.574;11.170;2024-03-02T05:40:14;96536.94;;;6.44
13410;BMP180;6775;49.574;11.170;2024-03-02T05:42:42;96534.38;;;6.44
13410;BMP180;6775;49.574;11.170;2024-03-02T05:45:11;96536.25;;;6.42
13410;BMP180;6775;49.574;11.170;2024-03-02T05:47:39;96537.41;;;6.38
13410;BMP180;6775;49.574;11.170;2024-03-02T05:50:09;96539.75;;;6.30
13410;BMP180;6775;49.574;11.170;2024-03-02T05:52:37;96541.84;;;6.25
13410;BMP180;6775;49.574;11.170;2024-03-02T05:55:06;96544.53;;;6.23
13410;BMP180;6775;49.574;11.170;2024-03-02T05:57:35;96543.72;;;6.23
13410;BMP180;6775;49.574;11.170;2024-03-02T06:00:17;96550.66;;;6.21
13410;BMP180;6775;49.574;11.170;2024-03-02T06:02:45;96553.69;;;6.26
13410;BMP180;6775;49.574;11.170;2024-03-02T06:05:15;96547.41;;;6.30
13410;BMP180;6775;49.574;11.170;2024-03-02T06:07:45;96549.38;;;6.37
13410;BMP180;6775;49.574;11.170;2024-03-02T06:10:14;96546.47;;;6.42
13410;BMP180;6775;49.574;11.170;2024-03-02T06:12:42;96544.59;;;6.44
13410;BMP180;6775;49.574;11.170;2024-03-02T06:15:10;96542.38;;;6.50
13410;BMP180;6775;49.574;11.170;2024-03-02T06:17:39;96543.56;;;6.46
13410;BMP180;6775;49.574;11.170;2024-03-02T06:20:08;96543.44;;;6.48
13410;BMP180;6775;49.574;11.170;2024-03-02T06:22:39;96544.00;;;6.51
13410;BMP180;6775;49.574;11.170;2024-03-02T06:25:08;96547.25;;;6.53
13410;BMP180;6775;49.574;11.170;2024-03-02T06:27:36;96550.16;;;6.49
13410;BMP180;6775;49.574;11.170;2024-03-02T06:30:05;96552.34;;;6.53
13410;BMP180;6775;49.574;11.170;2024-03-02T06:32:35;96550.53;;;6.44
13410;BMP180;6775;49.574;11.170;2024-03-02T06:35:04;96552.72;;;6.38
13410;BMP180;6775;49.574;11.170;2024-03-02T06:37:34;96557.03;;;6.37
13410;BMP180;6775;49.574;11.170;2024-03-02T06:40:05;96550.66;;;6.32
13410;BMP180;6775;49.574;11.170;2024-03-02T06:42:34;96539.75;;;6.30
13410;BMP180;6775;49.574;11.170;2024-03-02T06:45:04;96553.69;;;6.26
13410;BMP180;6775;49.574;11.170;2024-03-02T06:47:32;96552.28;;;6.22
13410;BMP180;6775;49.574;11.170;2024-03-02T06:50:01;96551.50;;;6.21
13410;BMP180;6775;49.574;11.170;2024-03-02T06:52:29;96560.88;;;6.21
13410;BMP180;6775;49.574;11.170;2024-03-02T06:54:57;96549.50;;;6.25
13410;BMP180;6775;49.574;11.170;2024-03-02T06:57:27;96542.03;;;6.44
13410;BMP180;6775;49.574;11.170;2024-03-02T06:59:55;96543.28;;;6.60
13410;BMP180;6775;49.574;11.170;2024-03-02T07:02:25;96546.16;;;6.66
13410;BMP180;6775;49.574;11.170;2024-03-02T07:04:54;96547.53;;;6.70
13410;BMP180;6775;49.574;11.170;2024-03-02T07:07:23;96547.31;;;6.73
13410;BMP180;6775;49.574;11.170;2024-03-02T07:09:51;96544.88;;;6.72
13410;BMP180;6775;49.574;11.170;2024-03-02T07:12:19;96537.31;;;6.70
13410;BMP180;6775;49.574;11.170;2024-03-02T07:14:49;96547.53;;;6.70
13410;BMP180;6775;49.574;11.170;2024-03-02T07:17:38;96550.53;;;6.75
13410;BMP180;6775;49.574;11.170;2024-03-02T07:20:07;96550.06;;;6.81
13410;BMP180;6775;49.574;11.170;2024-03-02T07:22:35;96561.28;;;6.90
13410;BMP180;6775;49.574;11.170;2024-03-02T07:25:08;96557.63;;;7.03
13410;BMP180;6775;49.574;11.170;2024-03-02T07:27:56;96559.41;;;7.23
13410;BMP180;6775;49.574;11.170;2024-03-02T07:30:26;96561.31;;;7.51
13410;BMP180;6775;49.574;11.170;2024-03-02T07:32:57;96565.44;;;7.92
13410;BMP180;6775;49.574;11.170;2024-03-02T07:35:26;96565.91;;;8.36
13410;BMP180;6775;49.574;11.170;2024-03-02T07:37:55;96566.00;;;8.83
13410;BMP180;6775;49.574;11.170;2024-03-02T07:40:23;96565.59;;;9.25
13410;BMP180;6775;49.574;11.170;2024-03-02T07:42:52;96573.13;;;9.55
13410;BMP180;6775;49.574;11.170;2024-03-02T07:45:20;96565.66;;;9.80
13410;BMP180;6775;49.574;11.170;2024-03-02T07:47:50;96565.34;;;10.02
13410;BMP180;6775;49.574;11.170;2024-03-02T07:50:18;96566.28;;;10.10
13410;BMP180;6775;49.574;11.170;2024-03-02T07:52:47;96570.25;;;10.32
13410;BMP180;6775;49.574;11.170;2024-03-02T07:55:15;96566.53;;;10.44
13410;BMP180;6775;49.574;11.170;2024-03-02T07:57:43;96567.63;;;10.41
13410;BMP180;6775;49.574;11.170;2024-03-02T08:00:12;96574.28;;;10.34
13410;BMP180;6775;49.574;11.170;2024-03-02T08:02:41;96572.22;;;10.11
13410;BMP180;6775;49.574;11.170;2024-03-02T08:05:11;96570.41;;;9.94
13410;BMP180;6775;49.574;11.170;2024-03-02T08:07:40;96570.38;;;9.85
13410;BMP180;6775;49.574;11.170;2024-03-02T08:10:10;96570.53;;;9.74
13410;BMP180;6775;49.574;11.170;2024-03-02T08:12:38;96571.41;;;9.55
13410;BMP180;6775;49.574;11.170;2024-03-02T08:15:07;96563.28;;;9.51
13410;BMP180;6775;49.574;11.170;2024-03-02T08:17:35;96564.94;;;9.42
13410;BMP180;6775;49.574;11.170;2024-03-02T08:20:06;96568.56;;;9.40
13410;BMP180;6775;49.574;11.170;2024-03-02T08:22:36;96570.88;;;9.43
13410;BMP180;6775;49.574;11.170;2024-03-02T08:25:06;96564.41;;;9.29
13410;BMP180;6775;49.574;11.170;2024-03-02T08:27:35;96570.47;;;9.38
13410;BMP180;6775;49.574;11.170;2024-03-02T08:30:05;96570.59;;;9.46
13410;BMP180;6775;49.574;11.170;2024-03-02T08:32:35;96569.78;;;9.54
13410;BMP180;6775;49.574;11.170;2024-03-02T08:35:05;96563.44;;;9.58
13410;BMP180;6775;49.574;11.170;2024-03-02T08:37:33;96572.53;;;9.89
13410;BMP180;6775;49.574;11.170;2024-03-02T08:40:04;96573.47;;;10.07
13410;BMP180;6775;49.574;11.170;2024-03-02T08:42:34;96572.16;;;10.30
13410;BMP180;6775;49.574;11.170;2024-03-02T08:45:03;96576.19;;;10.59
13410;BMP180;6775;49.574;11.170;2024-03-02T08:47:31;96577.06;;;10.94
13410;BMP180;6775;49.574;11.170;2024-03-02T08:50:00;96574.97;;;11.32
13410;BMP180;6775;49.574;11.170;2024-03-02T08:52:29;96575.03;;;11.75
13410;BMP180;6775;49.574;11.170;2024-03-02T08:54:57;96580.09;;;11.84
13410;BMP180;6775;49.574;11.170;2024-03-02T08:57:27;96573.22;;;13.00
13410;BMP180;6775;49.574;11.170;2024-03-02T08:59:55;96574.03;;;14.58
13410;BMP180;6775;49.574;11.170;2024-03-02T09:02:23;96565.19;;;15.94
13410;BMP180;6775;49.574;11.170;2024-03-02T09:04:52;96567.41;;;16.97
13410;BMP180;6775;49.574;11.170;2024-03-02T09:07:20;96564.34;;;17.43
13410;BMP180;6775;49.574;11.170;2024-03-02T09:09:49;96563.94;;;16.90
13410;BMP180;6775;49.574;11.170;2024-03-02T09:12:17;96574.69;;;16.15
13410;BMP180;6775;49.574;11.170;2024-03-02T09:14:47;96564.72;;;15.54
13410;BMP180;6775;49.574;11.170;2024-03-02T09:17:15;96565.09;;;15.28
13410;BMP180;6775;49.574;11.170;2024-03-02T09:19:44;96567.72;;;14.90
13410;BMP180;6775;49.574;11.170;2024-03-02T09:22:12;96571.41;;;14.65
13410;BMP180;6775;49.574;11.170;2024-03-02T09:24:40;96567.69;;;14.30
13410;BMP180;6775;49.574;11.170;2024-03-02T09:27:08;96564.06;;;13.77
13410;BMP180;6775;49.574;11.170;2024-03-02T09:29:37;96569.03;;;13.47
13410;BMP180;6775;49.574;11.170;2024-03-02T09:32:08;96564.22;;;13.20
13410;BMP180;6775;49.574;11.170;2024-03-02T09:34:40;96566.75;;;12.88
13410;BMP180;6775;49.574;11.170;2024-03-02T09:37:08;96564.44;;;12.85
13410;BMP180;6775;49.574;11.170;2024-03-02T09:39:36;96565.00;;;13.05
13410;BMP180;6775;49.574;11.170;2024-03-02T09:42:05;96564.19;;;13.04
13410;BMP180;6775;49.574;11.170;2024-03-02T09:44:34;96560.94;;;13.02
13410;BMP180;6775;49.574;11.170;2024-03-02T09:47:02;96561.84;;;12.77
13410;BMP180;6775;49.574;11.170;2024-03-02T09:49:32;96556.16;;;12.66
13410;BMP180;6775;49.574;11.170;2024-03-02T09:52:04;96557.63;;;12.68
13410;BMP180;6775;49.574;11.170;2024-03-02T09:54:33;96552.63;;;12.67
13410;BMP180;6775;49.574;11.170;2024-03-02T09:57:02;96551.22;;;12.80
13410;BMP180;6775;49.574;11.170;2024-03-02T09:59:31;96548.69;;;12.88
13410;BMP180;6775;49.574;11.170;2024-03-02T10:02:01;96548.69;;;12.88
13410;BMP180;6775;49.574;11.170;2024-03-02T10:04:33;96535.97;;;12.87
13410;BMP180;6775;49.574;11.170;2024-03-02T10:07:13;96539.19;;;12.89
13410;BMP180;6775;49.574;11.170;2024-03-02T10:09:44;96544.66;;;12.86
13410;BMP180;6775;49.574;11.170;2024-03-02T10:12:15;96544.44;;;12.79
13410;BMP180;6775;49.574;11.170;2024-03-02T10:14:44;96545.47;;;12.94
13410;BMP180;6775;49.574;11.170;2024-03-02T10:17:17;96531.78;;;13.17
13410;BMP180;6775;49.574;11.170;2024-03-02T10:19:47;96530.19;;;13.48
13410;BMP180;6775;49.574;11.170;2024-03-02T10:22:15;96533.41;;;13.66
13410;BMP180;6775;49.574;11.170;2024-03-02T10:24:44;96532.56;;;13.73
13410;BMP180;6775;49.574;11.170;2024-03-02T10:27:17;96525.00;;;13.56
13410;BMP180;6775;49.574;11.170;2024-03-02T10:29:47;96529.06;;;13.59
13410;BMP180;6775;49.574;11.170;2024-03-02T10:32:16;96530.75;;;13.98
13410;BMP180;6775;49.574;11.170;2024-03-02T10:34:46;96530.75;;;14.52
13410;BMP180;6775;49.574;11.170;2024-03-02T10:37:16;96520.38;;;14.60
13410;BMP180;6775;49.574;11.170;2024-03-02T10:39:46;96524.28;;;14.56
13410;BMP180;6775;49.574;11.170;2024-03-02T10:42:15;96512.03;;;14.50
13410;BMP180;6775;49.574;11.170;2024-03-02T10:44:45;96525.69;;;14.58
13410;BMP180;6775;49.574;11.170;2024-03-02T10:47:15;96511.47;;;14.62
13410;BMP180;6775;49.574;11.170;2024-03-02T10:49:48;96519.66;;;14.73
13410;BMP180;6775;49.574;11.170;2024-03-02T10:52:17;96521.59;;;14.71
13410;BMP180;6775;49.574;11.170;2024-03-02T10:54:46;96516.78;;;14.68
13410;BMP180;6775;49.574;11.170;2024-03-02T10:57:21;96513.88;;;14.63
13410;BMP180;6775;49.574;11.170;2024-03-02T10:59:53;96503.59;;;14.56
13410;BMP180;6775;49.574;11.170;2024-03-02T11:02:25;96506.97;;;14.56
13410;BMP180;6775;49.574;11.170;2024-03-02T11:04:59;96495.69;;;14.79
13410;BMP180;6775;49.574;11.170;2024-03-02T11:07:29;96503.03;;;15.20
13410;BMP180;6775;49.574;11.170;2024-03-02T11:10:01;96496.00;;;15.29
13410;BMP180;6775;49.574;11.170;2024-03-02T11:12:46;96496.94;;;15.36
13410;BMP180;6775;49.574;11.170;2024-03-02T11:15:18;96494.91;;;15.46
13410;BMP180;6775;49.574;11.170;2024-03-02T11:17:48;96495.31;;;15.71
13410;BMP180;6775;49.574;11.170;2024-03-02T11:20:19;96495.75;;;16.04
13410;BMP180;6775;49.574;11.170;2024-03-02T11:22:47;96498.53;;;16.02
13410;BMP180;6775;49.574;11.170;2024-03-02T11:25:25;96491.28;;;16.41
13410;BMP180;6775;49.574;11.170;2024-03-02T11:28:02;96498.56;;;16.80
13410;BMP180;6775;49.574;11.170;2024-03-02T11:30:49;96490.94;;;16.15
13410;BMP180;6775;49.574;11.170;2024-03-02T11:33:24;96477.56;;;15.46
13410;BMP180;6775;49.574;11.170;2024-03-02T11:35:56;96477.94;;;14.99
13410;BMP180;6775;49.574;11.170;2024-03-02T11:38:33;96481.38;;;14.69
13410;BMP180;6775;49.574;11.170;2024-03-02T11:41:06;96486.53;;;14.69
13410;BMP180;6775;49.574;11.170;2024-03-02T11:43:38;96473.34;;;14.86
13410;BMP180;6775;49.574;11.170;2024-03-02T11:46:07;96474.41;;;14.69
13410;BMP180;6775;49.574;11.170;2024-03-02T11:48:37;96474.97;;;14.57
13410;BMP180;6775;49.574;11.170;2024-03-02T11:51:08;96471.25;;;15.49
13410;BMP180;6775;49.574;11.170;2024-03-02T11:53:39;96467.13;;;16.55
13410;BMP180;6775;49.574;11.170;2024-03-02T11:56:09;96459.81;;;17.20
13410;BMP180;6775;49.574;11.170;2024-03-02T11:58:40;96465.63;;;17.70
13410;BMP180;6775;49.574;11.170;2024-03-02T12:01:10;96464.88;;;18.10
13410;BMP180;6775;49.574;11.170;2024-03-02T12:03:40;96463.88;;;17.23
13410;BMP180;6775;49.574;11.170;2024-03-02T12:06:11;96457.13;;;16.52
13410;BMP180;6775;49.574;11.170;2024-03-02T12:08:40;96453.69;;;16.66
13410;BMP180;6775;49.574;11.170;2024-03-02T12:11:13;96446.88;;;17.48
13410;BMP180;6775;49.574;11.170;2024-03-02T12:13:52;96444.44;;;17.40
13410;BMP180;6775;49.574;11.170;2024-03-02T12:16:25;96441.59;;;17.14
13410;BMP180;6775;49.574;11.170;2024-03-02T12:18:54;96435.34;;;16.88
13410;BMP180;6775;49.574;11.170;2024-03-02T12:21:24;96438.00;;;16.73
13410;BMP180;6775;49.574;11.170;2024-03-02T12:23:53;96440.09;;;16.14
13410;BMP180;6775;49.574;11.170;2024-03-02T12:26:22;96432.69;;;16.11
13410;BMP180;6775;49.574;11.170;2024-03-02T12:28:51;96429.63;;;16.71
13410;BMP180;6775;49.574;11.170;2024-03-02T12:31:20;96430.22;;;17.15
13410;BMP180;6775;49.574;11.170;2024-03-02T12:33:48;96431.19;;;17.62
13410;BMP180;6775;49.574;11.170;2024-03-02T12:36:17;96428.66;;;17.68
13410;BMP180;6775;49.574;11.170;2024-03-02T12:38:48;96418.19;;;18.23
13410;BMP180;6775;49.574;11.170;2024-03-02T12:41:17;96416.78;;;18.93
13410;BMP180;6775;49.574;11.170;2024-03-02T12:43:45;96409.16;;;18.98
13410;BMP180;6775;49.574;11.170;2024-03-02T12:46:14;96403.50;;;18.62
13410;BMP180;6775;49.574;11.170;2024-03-02T12:48:43;96403.00;;;18.33
13410;BMP180;6775;49.574;11.170;2024-03-02T12:51:12;96400.66;;;18.04
13410;BMP180;6775;49.574;11.170;2024-03-02T12:53:41;96411.66;;;17.39
13410;BMP180;6775;49.574;11.170;2024-03-02T12:56:11;96406.00;;;17.29
13410;BMP180;6775;49.574;11.170;2024-03-02T12:58:40;96403.75;;;17.05
13410;BMP180;6775;49.574;11.170;2024-03-02T13:01:09;96402.91;;;17.40
13410;BMP180;6775;49.574;11.170;2024-03-02T13:03:38;96393.72;;;17.77
13410;BMP180;6775;49.574;11.170;2024-03-02T13:06:07;96394.63;;;17.97
13410;BMP180;6775;49.574;11.170;2024-03-02T13:08:36;96389.50;;;18.57
13410;BMP180;6775;49.574;11.170;2024-03-02T13:11:04;96385.91;;;18.70
13410;BMP180;6775;49.574;11.170;2024-03-02T13:13:35;96382.72;;;18.81
13410;BMP180;6775;49.574;11.170;2024-03-02T13:16:08;96382.69;;;18.69
13410;BMP180;6775;49.574;11.170;2024-03-02T13:18:38;96377.59;;;18.35
13410;BMP180;6775;49.574;11.170;2024-03-02T13:21:07;96381.47;;;18.05
13410;BMP180;6775;49.574;11.170;2024-03-02T13:23:35;96381.44;;;17.99
13410;BMP180;6775;49.574;11.170;2024-03-02T13:26:04;96375.66;;;18.03
13410;BMP180;6775;49.574;11.170;2024-03-02T13:28:36;96373.38;;;17.87
13410;BMP180;6775;49.574;11.170;2024-03-02T13:31:04;96373.31;;;17.41
13410;BMP180;6775;49.574;11.170;2024-03-02T13:33:33;96365.59;;;16.99
13410;BMP180;6775;49.574;11.170;2024-03-02T13:36:03;96364.28;;;16.62
13410;BMP180;6775;49.574;11.170;2024-03-02T13:38:31;96373.75;;;16.96
13410;BMP180;6775;49.574;11.170;2024-03-02T13:40:59;96367.69;;;17.10
13410;BMP180;6775;49.574;11.170;2024-03-02T13:43:28;96363.78;;;17.48
13410;BMP180;6775;49.574;11.170;2024-03-02T13:46:00;96365.44;;;17.28
13410;BMP180;6775;49.574;11.170;2024-03-02T13:48:29;96362.25;;;17.05
13410;BMP180;6775;49.574;11.170;2024-03-02T13:50:58;96360.13;;;17.42
13410;BMP180;6775;49.574;11.170;2024-03-02T13:53:27;96351.28;;;18.04
13410;BMP180;6775;49.574;11.170;2024-03-02T13:55:55;96353.22;;;18.36
13410;BMP180;6775;49.574;11.170;2024-03-02T13:58:23;96350.41;;;18.31
13410;BMP180;6775;49.574;11.170;2024-03-02T14:00:52;96355.19;;;17.81
13410;BMP180;6775;49.574;11.170;2024-03-02T14:03:22;96355.31;;;17.39
13410;BMP180;6775;49.574;11.170;2024-03-02T14:05:50;96361.59;;;16.97
13410;BMP180;6775;49.574;11.170;2024-03-02T14:08:19;96348.75;;;16.26
13410;BMP180;6775;49.574;11.170;2024-03-02T14:10:48;96352.38;;;15.97
13410;BMP180;6775;49.574;11.170;2024-03-02T14:13:16;96355.78;;;15.83
13410;BMP180;6775;49.574;11.170;2024-03-02T14:15:45;96348.91;;;15.32
13410;BMP180;6775;49.574;11.170;2024-03-02T14:18:13;96354.72;;;14.98
13410;BMP180;6775;49.574;11.170;2024-03-02T14:20:43;96348.41;;;14.63
13410;BMP180;6775;49.574;11.170;2024-03-02T14:23:12;96346.81;;;14.40
13410;BMP180;6775;49.574;11.170;2024-03-02T14:25:41;96356.34;;;14.40
13410;BMP180;6775;49.574;11.170;2024-03-02T14:28:09;96357.59;;;14.44
13410;BMP180;6775;49.574;11.170;2024-03-02T14:30:57;96357.59;;;14.44